Time;durP1;ratioP1;P1;durP2;ratioP2;P2;SDS_P1;SDS_P2;PMS_P1;PMS_P2;Temp;Humidity;BMP_temperature;BMP_pressure;BME280_temperature;BME280_humidity;BME280_pressure;Samples;Min_cycle;Max_cycle;Signal;HPM_P1;HPM_P2
2021/12/15 00:02:19;;;;;;;42.03;16.92;;;;;;;;;;5031825;28;20057;-56
2021/12/15 00:04:45;;;;;;;37.78;15.23;;;;;;;;;;5029248;28;20044;-56
2021/12/15 00:07:11;;;;;;;41.97;17.17;;;;;;;;;;5032419;28;20034;-57
2021/12/15 00:09:37;;;;;;;39.55;16.55;;;;;;;;;;5029661;28;20794;-54
2021/12/15 00:12:04;;;;;;;41.25;16.92;;;;;;;;;;5029913;28;20108;-51
2021/12/15 00:14:32;;;;;;;41.13;16.10;;;;;;;;;;5031083;28;20029;-55
2021/12/15 00:16:58;;;;;;;38.13;16.95;;;;;;;;;;5032293;28;20038;-57
2021/12/15 00:19:26;;;;;;;42.17;17.02;;;;;;;;;;5031434;28;20095;-57
2021/12/15 00:21:52;;;;;;;44.35;16.13;;;;;;;;;;5025942;28;20072;-57
2021/12/15 00:24:19;;;;;;;41.20;15.63;;;;;;;;;;5027880;28;20393;-55
2021/12/15 00:26:44;;;;;;;41.92;14.65;;;;;;;;;;5030357;28;20516;-56
2021/12/15 00:29:10;;;;;;;44.92;17.55;;;;;;;;;;5032073;28;20080;-57
2021/12/15 00:31:37;;;;;;;42.17;16.35;;;;;;;;;;5028769;28;20041;-56
2021/12/15 00:34:05;;;;;;;41.03;16.80;;;;;;;;;;5026604;28;20482;-53
2021/12/15 00:36:31;;;;;;;44.15;16.50;;;;;;;;;;5030144;28;20037;-55
2021/12/15 00:38:57;;;;;;;39.38;16.58;;;;;;;;;;5027769;28;20026;-54
2021/12/15 00:41:23;;;;;;;43.60;16.75;;;;;;;;;;5028805;28;20155;-54
2021/12/15 00:43:49;;;;;;;43.92;16.73;;;;;;;;;;5021998;28;20108;-55
2021/12/15 00:46:15;;;;;;;37.42;14.85;;;;;;;;;;5022198;28;20061;-56
2021/12/15 00:48:42;;;;;;;39.45;16.50;;;;;;;;;;5028478;28;20097;-57
2021/12/15 00:51:08;;;;;;;47.13;17.50;;;;;;;;;;5032078;28;20187;-56
2021/12/15 00:53:34;;;;;;;40.55;15.88;;;;;;;;;;5031729;28;20037;-57
2021/12/15 00:56:00;;;;;;;37.92;16.17;;;;;;;;;;5028652;28;20038;-57
2021/12/15 00:58:26;;;;;;;39.70;16.45;;;;;;;;;;5030549;28;20179;-57
2021/12/15 01:00:54;;;;;;;45.63;16.27;;;;;;;;;;5022488;28;20052;-56
2021/12/15 01:03:21;;;;;;;46.17;16.55;;;;;;;;;;5030652;28;20041;-55
2021/12/15 01:05:49;;;;;;;43.28;17.70;;;;;;;;;;5027879;28;20046;-56
2021/12/15 01:08:16;;;;;;;39.85;17.38;;;;;;;;;;5024253;28;20098;-57
2021/12/15 01:10:58;;;;;;;44.60;16.55;;;;;;;;;;5029500;28;20025;-57
2021/12/15 01:21:39;;;;;;;43.67;16.45;;;;;;;;;;5031513;28;20099;-57
2021/12/15 01:24:05;;;;;;;44.22;16.77;;;;;;;;;;5029209;28;20026;-57
2021/12/15 01:26:31;;;;;;;43.33;16.27;;;;;;;;;;5026582;28;20503;-57
2021/12/15 01:28:57;;;;;;;43.50;17.83;;;;;;;;;;5025447;28;20183;-57
2021/12/15 01:31:24;;;;;;;42.92;16.30;;;;;;;;;;5031812;28;20416;-55
2021/12/15 01:33:50;;;;;;;40.33;16.02;;;;;;;;;;5023915;28;20116;-55
2021/12/15 01:36:16;;;;;;;42.55;16.00;;;;;;;;;;5029260;28;20117;-56
2021/12/15 01:38:44;;;;;;;42.25;15.23;;;;;;;;;;5028714;28;20022;-57
2021/12/15 01:41:19;;;;;;;38.60;15.75;;;;;;;;;;5012811;28;20030;-54
2021/12/15 01:46:52;;;;;;;45.33;14.77;;;;;;;;;;5028267;28;21184;-56
2021/12/15 01:46:54;;;;;;;44.25;16.35;;;;;;;;;;5028726;28;20037;-57
2021/12/15 01:49:26;;;;;;;37.45;14.60;;;;;;;;;;5032421;28;20029;-57
2021/12/15 01:51:52;;;;;;;35.75;14.65;;;;;;;;;;5024422;28;20534;-57
2021/12/15 01:54:18;;;;;;;41.38;15.38;;;;;;;;;;5035264;28;20033;-56
2021/12/15 01:56:44;;;;;;;38.00;14.60;;;;;;;;;;5033209;28;20108;-56
2021/12/15 01:59:11;;;;;;;40.17;14.45;;;;;;;;;;5033545;28;20393;-57
2021/12/15 02:01:38;;;;;;;41.22;15.23;;;;;;;;;;5033180;28;20026;-56
2021/12/15 02:04:04;;;;;;;40.13;14.43;;;;;;;;;;5035260;28;20417;-53
2021/12/15 02:06:30;;;;;;;41.10;13.95;;;;;;;;;;5033267;28;20473;-56
2021/12/15 02:08:56;;;;;;;40.72;15.45;;;;;;;;;;5034774;28;20112;-57
2021/12/15 02:11:23;;;;;;;36.70;14.05;;;;;;;;;;5027573;28;20032;-56
2021/12/15 02:13:49;;;;;;;35.33;12.98;;;;;;;;;;5034943;28;20037;-52
2021/12/15 02:16:15;;;;;;;37.85;14.65;;;;;;;;;;5033342;28;20516;-56
2021/12/15 02:18:43;;;;;;;39.45;15.15;;;;;;;;;;5033059;28;20034;-56
2021/12/15 02:21:11;;;;;;;40.90;14.05;;;;;;;;;;5033593;28;20030;-55
2021/12/15 02:23:41;;;;;;;36.83;13.90;;;;;;;;;;5028265;28;20022;-56
2021/12/15 02:26:19;;;;;;;37.88;14.48;;;;;;;;;;5028854;28;20144;-52
2021/12/15 02:28:47;;;;;;;37.08;14.30;;;;;;;;;;5034009;28;20143;-53
2021/12/15 02:31:32;;;;;;;37.10;13.77;;;;;;;;;;5029865;28;20030;-55
2021/12/15 02:39:28;;;;;;;39.13;15.05;;;;;;;;;;5030558;28;20167;-57
2021/12/15 02:41:55;;;;;;;40.67;15.68;;;;;;;;;;5028383;28;20033;-56
2021/12/15 02:44:23;;;;;;;35.40;14.40;;;;;;;;;;5035510;28;20043;-57
2021/12/15 02:46:50;;;;;;;43.70;15.05;;;;;;;;;;5033929;28;20035;-56
2021/12/15 02:49:18;;;;;;;38.83;14.50;;;;;;;;;;5027589;28;20113;-53
2021/12/15 02:51:45;;;;;;;37.50;13.45;;;;;;;;;;5029990;28;20037;-55
2021/12/15 02:54:12;;;;;;;39.05;14.13;;;;;;;;;;5030761;28;20195;-56
2021/12/15 02:56:39;;;;;;;39.50;13.55;;;;;;;;;;5030706;28;20497;-55
2021/12/15 02:59:07;;;;;;;34.15;13.25;;;;;;;;;;5026348;28;20532;-57
2021/12/15 03:01:41;;;;;;;36.13;13.98;;;;;;;;;;5030015;28;20082;-55
2021/12/15 03:04:15;;;;;;;35.25;13.65;;;;;;;;;;5029746;28;20113;-55
2021/12/15 03:06:56;;;;;;;29.75;12.75;;;;;;;;;;5037543;28;20049;-56
2021/12/15 03:17:37;;;;;;;37.88;13.52;;;;;;;;;;5023610;28;20040;-53
2021/12/15 03:20:04;;;;;;;35.88;13.75;;;;;;;;;;5032944;28;20074;-51
2021/12/15 03:22:30;;;;;;;33.83;13.43;;;;;;;;;;5030612;28;20030;-52
2021/12/15 03:24:56;;;;;;;40.53;14.63;;;;;;;;;;5031045;28;20018;-56
2021/12/15 03:33:14;;;;;;;31.38;13.80;;;;;;;;;;5032576;28;20025;-54
2021/12/15 03:36:04;;;;;;;31.13;12.52;;;;;;;;;;5031571;28;20068;-56
2021/12/15 03:38:24;;;;;;;32.67;12.60;;;;;;;;;;5027441;28;20029;-57
2021/12/15 03:40:50;;;;;;;32.58;13.20;;;;;;;;;;5030256;28;20022;-56
2021/12/15 03:43:17;;;;;;;33.88;13.40;;;;;;;;;;5032846;28;20104;-52
2021/12/15 03:45:46;;;;;;;35.97;13.18;;;;;;;;;;5027446;28;20021;-55
2021/12/15 03:48:15;;;;;;;36.60;13.15;;;;;;;;;;5027003;28;20029;-57
2021/12/15 03:50:42;;;;;;;27.83;12.00;;;;;;;;;;5030744;28;20533;-56
2021/12/15 03:53:09;;;;;;;32.53;12.70;;;;;;;;;;5033642;28;20036;-54
2021/12/15 03:55:36;;;;;;;32.60;11.43;;;;;;;;;;5024362;28;20387;-55
2021/12/15 03:58:06;;;;;;;28.55;11.90;;;;;;;;;;5031996;28;20040;-53
2021/12/15 04:00:32;;;;;;;29.83;12.07;;;;;;;;;;5026977;28;21755;-53
2021/12/15 04:02:58;;;;;;;24.88;10.45;;;;;;;;;;5026782;28;20482;-55
2021/12/15 04:05:25;;;;;;;30.02;12.43;;;;;;;;;;5032802;28;20022;-57
2021/12/15 04:07:51;;;;;;;33.47;11.90;;;;;;;;;;5031067;28;20033;-52
2021/12/15 04:10:20;;;;;;;33.25;11.93;;;;;;;;;;5032785;28;20368;-54
2021/12/15 04:12:47;;;;;;;25.90;11.70;;;;;;;;;;5026497;28;20487;-54
2021/12/15 04:17:59;;;;;;;30.83;11.88;;;;;;;;;;5025018;28;20100;-54
2021/12/15 04:20:27;;;;;;;26.25;10.88;;;;;;;;;;5028878;28;20059;-55
2021/12/15 04:22:53;;;;;;;29.30;12.23;;;;;;;;;;5029410;28;20025;-53
2021/12/15 04:25:23;;;;;;;26.05;10.93;;;;;;;;;;5032420;28;20036;-56
2021/12/15 04:27:54;;;;;;;29.17;10.85;;;;;;;;;;5032202;28;20022;-55
2021/12/15 04:30:20;;;;;;;29.33;11.80;;;;;;;;;;5029718;28;20473;-56
2021/12/15 04:32:48;;;;;;;30.13;11.43;;;;;;;;;;5027602;28;20116;-56
2021/12/15 04:35:15;;;;;;;27.33;10.43;;;;;;;;;;5029127;28;20053;-55
2021/12/15 04:37:42;;;;;;;29.90;11.32;;;;;;;;;;5025207;28;20087;-55
2021/12/15 04:40:10;;;;;;;31.15;11.65;;;;;;;;;;5029941;28;20567;-57
2021/12/15 04:42:38;;;;;;;29.52;11.23;;;;;;;;;;5030852;28;20094;-57
2021/12/15 04:45:04;;;;;;;25.98;10.85;;;;;;;;;;5030356;28;20056;-57
2021/12/15 04:47:30;;;;;;;33.25;11.95;;;;;;;;;;5028440;28;20125;-57
2021/12/15 04:49:56;;;;;;;28.35;11.38;;;;;;;;;;5025702;28;20108;-56
2021/12/15 04:52:24;;;;;;;26.60;10.90;;;;;;;;;;5030994;28;20036;-57
2021/12/15 04:54:51;;;;;;;26.98;11.15;;;;;;;;;;5031271;28;20037;-54
2021/12/15 04:57:17;;;;;;;28.98;11.38;;;;;;;;;;5023485;28;20180;-54
2021/12/15 04:59:44;;;;;;;28.30;11.20;;;;;;;;;;5024857;28;20057;-55
2021/12/15 05:02:11;;;;;;;29.05;10.32;;;;;;;;;;5028222;28;20032;-56
2021/12/15 05:04:37;;;;;;;26.40;10.27;;;;;;;;;;5028992;28;20091;-56
2021/12/15 05:07:04;;;;;;;21.77;9.70;;;;;;;;;;5025352;28;20113;-54
2021/12/15 05:09:30;;;;;;;23.60;10.50;;;;;;;;;;5031228;28;20029;-57
2021/12/15 05:11:56;;;;;;;26.65;10.70;;;;;;;;;;5030345;28;20033;-55
2021/12/15 05:14:23;;;;;;;28.50;11.38;;;;;;;;;;5031361;28;20029;-52
2021/12/15 05:16:50;;;;;;;26.15;11.00;;;;;;;;;;5029066;28;20030;-54
2021/12/15 05:19:16;;;;;;;28.10;10.35;;;;;;;;;;5030883;28;20033;-55
2021/12/15 05:21:42;;;;;;;26.15;10.18;;;;;;;;;;5027223;28;20021;-56
2021/12/15 05:24:21;;;;;;;25.83;9.90;;;;;;;;;;5031996;28;20466;-54
2021/12/15 05:26:47;;;;;;;29.13;11.52;;;;;;;;;;5026132;28;20044;-51
2021/12/15 05:29:13;;;;;;;26.10;10.60;;;;;;;;;;5021563;28;20022;-57
2021/12/15 05:31:40;;;;;;;24.52;10.10;;;;;;;;;;5031907;28;20032;-51
2021/12/15 05:34:06;;;;;;;24.60;10.35;;;;;;;;;;5031342;28;20128;-56
2021/12/15 05:36:32;;;;;;;27.63;10.60;;;;;;;;;;5024952;28;20109;-53
2021/12/15 05:38:58;;;;;;;22.60;9.75;;;;;;;;;;5027672;28;20116;-56
2021/12/15 05:41:24;;;;;;;27.05;10.98;;;;;;;;;;5030283;28;20437;-55
2021/12/15 05:43:50;;;;;;;26.48;11.00;;;;;;;;;;5031584;28;20485;-56
2021/12/15 05:46:16;;;;;;;28.25;11.07;;;;;;;;;;5031101;28;20123;-57
2021/12/15 05:48:42;;;;;;;24.27;10.60;;;;;;;;;;5027561;28;20108;-56
2021/12/15 05:51:08;;;;;;;24.55;10.45;;;;;;;;;;5026560;28;20147;-57
2021/12/15 05:53:34;;;;;;;26.05;10.50;;;;;;;;;;5028343;28;20115;-56
2021/12/15 05:56:00;;;;;;;22.17;10.23;;;;;;;;;;5027370;28;20033;-57
2021/12/15 05:58:28;;;;;;;26.52;10.93;;;;;;;;;;5027810;28;20072;-57
2021/12/15 06:00:54;;;;;;;22.48;9.70;;;;;;;;;;5030059;28;20040;-54
2021/12/15 06:03:20;;;;;;;23.00;10.43;;;;;;;;;;5030592;28;20418;-54
2021/12/15 06:05:46;;;;;;;25.10;9.45;;;;;;;;;;5024961;28;20026;-53
2021/12/15 06:08:12;;;;;;;22.30;9.57;;;;;;;;;;5030293;28;20112;-57
2021/12/15 06:10:39;;;;;;;21.60;9.73;;;;;;;;;;5030694;28;20017;-57
2021/12/15 06:13:06;;;;;;;24.50;9.77;;;;;;;;;;5028229;28;20030;-55
2021/12/15 06:15:32;;;;;;;27.08;11.13;;;;;;;;;;5029671;28;20037;-57
2021/12/15 06:18:00;;;;;;;22.67;9.88;;;;;;;;;;5028793;28;20750;-57
2021/12/15 06:20:27;;;;;;;24.27;9.85;;;;;;;;;;5030327;28;20440;-56
2021/12/15 06:22:54;;;;;;;23.55;9.77;;;;;;;;;;5030580;28;20763;-54
2021/12/15 06:25:20;;;;;;;22.75;9.68;;;;;;;;;;5026852;28;20128;-57
2021/12/15 06:27:46;;;;;;;23.63;9.73;;;;;;;;;;5030458;28;20104;-55
2021/12/15 06:30:12;;;;;;;21.42;8.65;;;;;;;;;;5030991;28;20171;-51
2021/12/15 06:32:38;;;;;;;22.63;8.63;;;;;;;;;;5030337;28;20075;-53
2021/12/15 06:35:06;;;;;;;22.60;9.15;;;;;;;;;;5029568;28;20128;-56
2021/12/15 06:37:32;;;;;;;22.30;9.23;;;;;;;;;;5030206;28;20113;-57
2021/12/15 06:39:58;;;;;;;22.38;9.25;;;;;;;;;;5029600;28;20030;-55
2021/12/15 06:42:24;;;;;;;19.20;8.93;;;;;;;;;;5027342;28;20026;-53
2021/12/15 06:44:51;;;;;;;22.77;8.95;;;;;;;;;;5030183;28;20028;-53
2021/12/15 06:58:23;;;;;;;20.50;8.93;;;;;;;;;;5033140;28;20039;-55
2021/12/15 07:00:50;;;;;;;19.33;8.77;;;;;;;;;;5029718;28;20029;-53
2021/12/15 07:03:18;;;;;;;19.90;9.02;;;;;;;;;;5030769;28;20105;-55
2021/12/15 07:05:44;;;;;;;17.45;8.02;;;;;;;;;;5030669;28;20022;-55
2021/12/15 07:08:11;;;;;;;15.63;7.65;;;;;;;;;;5030482;28;20033;-55
2021/12/15 07:10:39;;;;;;;17.75;8.18;;;;;;;;;;5030455;28;20029;-55
2021/12/15 07:13:05;;;;;;;22.65;9.07;;;;;;;;;;5030471;28;20048;-55
2021/12/15 07:15:33;;;;;;;20.05;7.80;;;;;;;;;;5029780;28;20531;-53
2021/12/15 07:18:03;;;;;;;20.17;8.90;;;;;;;;;;5028219;28;20026;-55
2021/12/15 07:20:37;;;;;;;18.65;7.88;;;;;;;;;;5027985;28;20747;-57
2021/12/15 07:23:04;;;;;;;22.83;8.90;;;;;;;;;;5031867;28;20116;-54
2021/12/15 07:25:30;;;;;;;19.63;9.45;;;;;;;;;;5032656;28;20028;-53
2021/12/15 07:27:58;;;;;;;20.58;8.10;;;;;;;;;;5032534;28;20030;-56
2021/12/15 07:30:24;;;;;;;19.45;8.60;;;;;;;;;;5032014;28;20122;-57
2021/12/15 07:32:50;;;;;;;20.83;8.18;;;;;;;;;;5032904;28;20112;-57
2021/12/15 07:35:17;;;;;;;19.55;8.05;;;;;;;;;;5027661;28;20039;-57
2021/12/15 07:37:43;;;;;;;20.23;8.50;;;;;;;;;;5032487;28;20091;-56
2021/12/15 07:40:13;;;;;;;18.73;8.05;;;;;;;;;;5034576;28;20597;-56
2021/12/15 07:42:54;;;;;;;21.23;8.43;;;;;;;;;;5031323;28;20116;-55
2021/12/15 07:45:22;;;;;;;17.75;7.80;;;;;;;;;;5027042;28;20120;-56
2021/12/15 07:47:49;;;;;;;19.17;8.23;;;;;;;;;;5030477;28;20060;-56
2021/12/15 07:50:15;;;;;;;17.13;7.78;;;;;;;;;;5030389;28;20044;-54
2021/12/15 07:52:41;;;;;;;17.25;7.72;;;;;;;;;;5031015;28;20117;-56
2021/12/15 07:55:07;;;;;;;17.75;8.05;;;;;;;;;;5030492;28;20513;-55
2021/12/15 07:57:33;;;;;;;21.15;8.63;;;;;;;;;;5030082;28;20039;-55
2021/12/15 07:59:59;;;;;;;21.80;8.13;;;;;;;;;;5025870;28;20053;-52
2021/12/15 08:02:26;;;;;;;16.60;7.53;;;;;;;;;;5029663;28;20029;-51
2021/12/15 08:04:52;;;;;;;15.55;7.35;;;;;;;;;;5026277;28;20029;-53
2021/12/15 08:07:18;;;;;;;19.13;8.07;;;;;;;;;;5028235;28;20029;-54
2021/12/15 08:09:45;;;;;;;15.05;6.80;;;;;;;;;;5023768;28;20026;-52
2021/12/15 08:12:11;;;;;;;15.82;7.45;;;;;;;;;;5021747;28;20056;-52
2021/12/15 08:14:39;;;;;;;18.00;7.53;;;;;;;;;;5026893;28;20391;-51
2021/12/15 08:17:04;;;;;;;13.23;6.90;;;;;;;;;;5033006;28;20481;-54
2021/12/15 08:19:31;;;;;;;16.25;7.05;;;;;;;;;;5031279;28;20025;-56
2021/12/15 08:21:57;;;;;;;16.20;7.18;;;;;;;;;;5032614;28;20026;-54
2021/12/15 08:24:23;;;;;;;17.38;6.97;;;;;;;;;;5032690;28;20045;-53
2021/12/15 08:26:49;;;;;;;16.90;7.68;;;;;;;;;;5025366;28;20076;-54
2021/12/15 08:29:15;;;;;;;14.55;7.25;;;;;;;;;;5030003;28;20029;-54
2021/12/15 08:31:42;;;;;;;18.45;8.15;;;;;;;;;;5032554;28;20850;-55
2021/12/15 08:34:08;;;;;;;19.50;7.55;;;;;;;;;;5032406;28;20045;-52
2021/12/15 08:36:34;;;;;;;14.98;7.07;;;;;;;;;;5027962;28;20037;-56
2021/12/15 08:39:00;;;;;;;15.70;7.82;;;;;;;;;;5031567;28;20031;-57
2021/12/15 08:41:28;;;;;;;15.00;7.00;;;;;;;;;;5032158;28;20052;-57
2021/12/15 08:43:54;;;;;;;19.85;6.88;;;;;;;;;;5031023;28;20044;-57
2021/12/15 08:46:22;;;;;;;17.65;7.65;;;;;;;;;;5032472;28;20021;-57
2021/12/15 08:48:49;;;;;;;19.30;8.18;;;;;;;;;;5031308;28;20109;-57
2021/12/15 08:51:16;;;;;;;17.55;7.30;;;;;;;;;;5032569;28;20021;-57
2021/12/15 08:53:43;;;;;;;17.00;8.27;;;;;;;;;;5031721;28;20028;-56
2021/12/15 08:56:10;;;;;;;16.33;7.78;;;;;;;;;;5031814;28;20049;-54
2021/12/15 08:58:36;;;;;;;15.18;7.35;;;;;;;;;;5031876;28;20487;-54
2021/12/15 09:01:04;;;;;;;19.45;8.27;;;;;;;;;;5032216;28;20512;-57
2021/12/15 09:03:30;;;;;;;19.60;7.55;;;;;;;;;;5031677;28;20032;-53
2021/12/15 09:05:57;;;;;;;16.45;7.25;;;;;;;;;;5025942;28;20041;-54
2021/12/15 09:08:24;;;;;;;16.23;7.57;;;;;;;;;;5030997;28;20030;-53
2021/12/15 09:10:50;;;;;;;16.55;7.22;;;;;;;;;;5031080;28;20057;-55
2021/12/15 09:13:16;;;;;;;18.13;7.93;;;;;;;;;;5031779;28;20132;-55
2021/12/15 09:15:42;;;;;;;14.27;7.18;;;;;;;;;;5030710;28;20778;-56
2021/12/15 09:18:10;;;;;;;14.77;7.65;;;;;;;;;;5031601;28;20033;-52
2021/12/15 09:20:37;;;;;;;16.77;8.25;;;;;;;;;;5030838;28;20038;-56
2021/12/15 09:23:06;;;;;;;15.27;7.13;;;;;;;;;;5030838;28;20083;-56
2021/12/15 09:25:32;;;;;;;15.32;7.65;;;;;;;;;;5031528;28;20493;-53
2021/12/15 09:27:58;;;;;;;17.98;7.53;;;;;;;;;;5030853;28;20472;-53
2021/12/15 09:30:25;;;;;;;15.85;7.45;;;;;;;;;;5031811;28;20075;-52
2021/12/15 09:32:51;;;;;;;15.82;7.10;;;;;;;;;;5032522;28;20034;-53
2021/12/15 09:35:18;;;;;;;16.45;7.95;;;;;;;;;;5032656;28;20047;-54
2021/12/15 09:37:44;;;;;;;17.45;7.70;;;;;;;;;;5031794;28;20550;-54
2021/12/15 09:40:11;;;;;;;15.27;7.97;;;;;;;;;;5027574;28;20310;-54
2021/12/15 09:42:39;;;;;;;22.00;8.48;;;;;;;;;;5030328;28;20024;-56
2021/12/15 10:04:20;;;;;;;15.48;8.30;;;;;;;;;;5034002;28;20036;-52
2021/12/15 10:17:29;;;;;;;16.88;8.15;;;;;;;;;;5042140;28;20417;-56
2021/12/15 10:19:57;;;;;;;14.63;6.85;;;;;;;;;;5032637;28;20026;-57
2021/12/15 10:22:40;;;;;;;18.67;8.68;;;;;;;;;;5033253;28;20125;-54
2021/12/15 10:25:09;;;;;;;15.25;6.70;;;;;;;;;;5034272;28;20025;-55
2021/12/15 10:27:47;;;;;;;16.92;8.45;;;;;;;;;;5033218;28;20036;-57
2021/12/15 10:30:15;;;;;;;14.93;7.65;;;;;;;;;;5027757;28;20040;-52
2021/12/15 10:32:42;;;;;;;15.27;7.50;;;;;;;;;;5035521;28;20033;-56
2021/12/15 10:35:08;;;;;;;15.23;7.30;;;;;;;;;;5023202;28;20054;-57
2021/12/15 10:37:35;;;;;;;16.67;7.57;;;;;;;;;;5042330;28;20033;-53
2021/12/15 10:40:27;;;;;;;14.07;7.13;;;;;;;;;;5034401;28;20571;-55
2021/12/15 10:43:00;;;;;;;13.43;6.68;;;;;;;;;;5029122;28;20049;-56
2021/12/15 10:45:33;;;;;;;14.88;7.10;;;;;;;;;;5030272;28;20031;-56
2021/12/15 10:48:01;;;;;;;13.37;7.43;;;;;;;;;;5026539;28;20021;-51
2021/12/15 10:50:27;;;;;;;13.70;6.50;;;;;;;;;;5030593;28;20457;-53
2021/12/15 10:52:55;;;;;;;15.00;6.78;;;;;;;;;;5032132;28;20061;-56
2021/12/15 10:55:27;;;;;;;14.18;6.80;;;;;;;;;;5030942;28;20449;-54
2021/12/15 10:57:53;;;;;;;16.38;6.72;;;;;;;;;;5030270;28;20397;-56
2021/12/15 11:00:20;;;;;;;13.15;6.15;;;;;;;;;;5029553;28;20036;-54
2021/12/15 11:02:47;;;;;;;13.57;6.95;;;;;;;;;;5031240;28;20656;-53
2021/12/15 11:05:21;;;;;;;12.30;6.68;;;;;;;;;;5034248;28;20121;-54
2021/12/15 11:07:47;;;;;;;12.90;6.43;;;;;;;;;;5030059;28;20508;-56
2021/12/15 11:10:16;;;;;;;15.23;6.55;;;;;;;;;;5024562;28;20022;-56
2021/12/15 11:12:50;;;;;;;13.05;6.15;;;;;;;;;;5031589;28;20029;-53
2021/12/15 11:15:26;;;;;;;13.68;5.45;;;;;;;;;;5027197;28;20037;-56
2021/12/15 11:17:56;;;;;;;15.05;6.68;;;;;;;;;;5031703;28;20755;-53
2021/12/15 11:20:27;;;;;;;12.68;6.05;;;;;;;;;;5026382;28;20124;-55
2021/12/15 11:22:57;;;;;;;9.95;5.50;;;;;;;;;;5027150;28;20033;-51
2021/12/15 11:25:28;;;;;;;14.13;6.18;;;;;;;;;;5029715;28;20030;-57
2021/12/15 11:28:00;;;;;;;11.63;5.65;;;;;;;;;;5019032;28;20488;-53
2021/12/15 11:30:29;;;;;;;11.68;5.47;;;;;;;;;;5030394;28;20044;-55
2021/12/15 11:32:56;;;;;;;10.50;5.63;;;;;;;;;;5033243;28;20041;-54
2021/12/15 11:35:27;;;;;;;10.98;5.95;;;;;;;;;;5033850;28;20029;-55
2021/12/15 11:37:58;;;;;;;9.13;5.10;;;;;;;;;;5032769;28;20028;-52
2021/12/15 11:40:27;;;;;;;11.38;5.32;;;;;;;;;;5033309;28;20032;-52
2021/12/15 11:42:53;;;;;;;11.25;5.97;;;;;;;;;;5030711;28;20056;-53
2021/12/15 11:45:19;;;;;;;11.15;5.55;;;;;;;;;;5027539;28;20053;-53
2021/12/15 11:47:45;;;;;;;11.18;4.88;;;;;;;;;;5022465;28;20026;-53
2021/12/15 11:50:16;;;;;;;10.07;5.50;;;;;;;;;;5030720;28;20034;-52
2021/12/15 11:52:45;;;;;;;11.30;5.55;;;;;;;;;;5033220;28;20408;-52
2021/12/15 11:55:22;;;;;;;9.20;4.88;;;;;;;;;;5033481;28;20025;-55
2021/12/15 11:57:48;;;;;;;11.60;6.15;;;;;;;;;;5021808;28;20099;-54
2021/12/15 12:00:20;;;;;;;11.10;5.68;;;;;;;;;;5030997;28;20033;-56
2021/12/15 12:02:48;;;;;;;10.67;5.40;;;;;;;;;;5020396;28;20756;-54
2021/12/15 12:05:18;;;;;;;12.25;5.53;;;;;;;;;;5026790;28;20087;-53
2021/12/15 12:07:48;;;;;;;9.50;5.32;;;;;;;;;;5029634;28;20045;-54
2021/12/15 12:10:22;;;;;;;13.13;5.55;;;;;;;;;;5027533;28;20117;-53
2021/12/15 12:12:53;;;;;;;;;;;;;;;;;;5028015;28;20033;-55
2021/12/15 12:15:22;;;;;;;11.43;4.70;;;;;;;;;;5030832;28;19913;-56
2021/12/15 12:17:50;;;;;;;7.65;4.68;;;;;;;;;;5026989;28;20033;-56
2021/12/15 12:20:30;;;;;;;8.68;4.22;;;;;;;;;;5029216;28;20056;-57
2021/12/15 12:22:58;;;;;;;9.80;5.25;;;;;;;;;;5022187;28;20029;-54
2021/12/15 12:25:26;;;;;;;8.77;4.82;;;;;;;;;;5029701;28;20022;-57
2021/12/15 12:27:53;;;;;;;8.38;4.55;;;;;;;;;;5029111;28;20029;-57
2021/12/15 12:30:24;;;;;;;8.75;5.20;;;;;;;;;;5016961;28;20438;-54
2021/12/15 12:32:51;;;;;;;9.60;5.15;;;;;;;;;;5022155;28;20146;-56
2021/12/15 12:35:18;;;;;;;9.20;4.85;;;;;;;;;;5025415;28;20073;-54
2021/12/15 12:37:50;;;;;;;10.32;5.00;;;;;;;;;;5019058;28;20529;-54
2021/12/15 12:40:21;;;;;;;9.32;5.35;;;;;;;;;;5024943;28;20037;-54
2021/12/15 12:42:47;;;;;;;9.70;5.07;;;;;;;;;;5021350;28;20030;-56
2021/12/15 12:45:16;;;;;;;8.70;4.18;;;;;;;;;;5029094;28;20041;-53
2021/12/15 12:48:00;;;;;;;11.68;5.43;;;;;;;;;;5030327;28;20040;-57
2021/12/15 12:57:58;;;;;;;9.75;4.78;;;;;;;;;;5027893;28;20049;-55
2021/12/15 13:01:09;;;;;;;10.80;5.45;;;;;;;;;;5027225;28;20492;-51
2021/12/15 13:03:38;;;;;;;10.32;5.47;;;;;;;;;;5020868;28;20036;-55
2021/12/15 13:06:07;;;;;;;12.55;5.63;;;;;;;;;;5026500;28;20037;-57
2021/12/15 13:08:36;;;;;;;11.38;5.47;;;;;;;;;;5023718;28;20037;-57
2021/12/15 13:11:22;;;;;;;9.60;4.53;;;;;;;;;;5028431;28;20070;-57
2021/12/15 13:13:54;;;;;;;9.20;5.40;;;;;;;;;;5021536;28;20034;-55
2021/12/15 13:16:43;;;;;;;12.07;5.63;;;;;;;;;;5029197;28;20425;-55
2021/12/15 13:19:20;;;;;;;10.80;4.82;;;;;;;;;;5025657;28;20493;-55
2021/12/15 13:21:54;;;;;;;10.25;5.07;;;;;;;;;;5031725;28;20461;-53
2021/12/15 13:30:26;;;;;;;12.55;5.68;;;;;;;;;;5017916;28;20045;-55
2021/12/15 13:32:54;;;;;;;12.20;6.10;;;;;;;;;;5027749;28;20022;-52
2021/12/15 13:35:24;;;;;;;12.38;6.20;;;;;;;;;;5029862;28;20041;-55
2021/12/15 13:37:50;;;;;;;11.60;5.65;;;;;;;;;;5025744;28;20033;-55
2021/12/15 13:40:17;;;;;;;11.73;5.85;;;;;;;;;;5026605;28;20044;-56
2021/12/15 13:42:53;;;;;;;12.77;5.63;;;;;;;;;;5032384;28;20102;-55
2021/12/15 13:45:29;;;;;;;15.93;6.18;;;;;;;;;;5033301;28;20072;-55
2021/12/15 13:47:55;;;;;;;13.07;6.47;;;;;;;;;;5034405;28;20030;-53
2021/12/15 13:50:23;;;;;;;11.18;5.35;;;;;;;;;;5029986;28;20029;-51
2021/12/15 13:53:04;;;;;;;13.93;6.93;;;;;;;;;;5043693;28;20029;-54
2021/12/15 13:55:37;;;;;;;13.98;6.47;;;;;;;;;;5030608;28;20108;-55
2021/12/15 13:58:06;;;;;;;10.38;5.75;;;;;;;;;;5030545;28;20087;-53
2021/12/15 14:00:43;;;;;;;12.85;6.13;;;;;;;;;;5036594;28;20034;-53
2021/12/15 14:03:16;;;;;;;15.48;6.45;;;;;;;;;;5037525;28;20072;-55
2021/12/15 14:05:52;;;;;;;10.82;5.78;;;;;;;;;;5028814;28;20032;-53
2021/12/15 14:08:21;;;;;;;13.13;5.95;;;;;;;;;;5034552;28;20056;-53
2021/12/15 14:10:54;;;;;;;12.45;5.72;;;;;;;;;;5036638;28;20041;-54
2021/12/15 14:13:20;;;;;;;13.10;5.88;;;;;;;;;;5027708;28;20057;-56
2021/12/15 14:15:47;;;;;;;12.55;6.22;;;;;;;;;;5034263;28;20033;-55
2021/12/15 14:18:14;;;;;;;11.95;5.93;;;;;;;;;;5031603;28;20468;-54
2021/12/15 14:20:40;;;;;;;11.60;5.50;;;;;;;;;;5033311;28;20095;-56
2021/12/15 14:23:08;;;;;;;10.43;4.93;;;;;;;;;;5029121;28;20150;-56
2021/12/15 14:25:36;;;;;;;12.23;5.97;;;;;;;;;;5027320;28;20112;-55
2021/12/15 14:28:25;;;;;;;10.10;5.22;;;;;;;;;;5031931;28;20029;-54
2021/12/15 14:30:59;;;;;;;12.10;6.10;;;;;;;;;;5029212;28;20544;-55
2021/12/15 14:33:27;;;;;;;11.65;5.97;;;;;;;;;;5031855;28;20108;-55
2021/12/15 14:35:54;;;;;;;10.18;5.15;;;;;;;;;;5028400;28;20026;-54
2021/12/15 14:38:33;;;;;;;9.40;5.28;;;;;;;;;;5032322;28;20029;-55
2021/12/15 14:41:04;;;;;;;9.30;5.10;;;;;;;;;;5024729;28;20037;-57
2021/12/15 14:43:30;;;;;;;11.35;5.80;;;;;;;;;;5031345;28;20030;-56
2021/12/15 14:45:56;;;;;;;10.20;5.18;;;;;;;;;;5036490;28;20366;-56
2021/12/15 14:48:23;;;;;;;11.07;5.18;;;;;;;;;;5033120;28;20037;-55
2021/12/15 14:50:49;;;;;;;9.95;4.80;;;;;;;;;;5033519;28;20030;-55
2021/12/15 14:53:15;;;;;;;10.85;5.25;;;;;;;;;;5030674;28;20090;-55
2021/12/15 14:55:41;;;;;;;10.45;5.50;;;;;;;;;;5028958;28;20057;-52
2021/12/15 14:58:08;;;;;;;10.73;5.00;;;;;;;;;;5030022;28;20041;-58
2021/12/15 15:00:37;;;;;;;12.40;5.30;;;;;;;;;;5033597;28;20040;-57
2021/12/15 15:03:05;;;;;;;9.98;5.22;;;;;;;;;;5030170;28;20078;-57
2021/12/15 15:05:44;;;;;;;11.15;5.32;;;;;;;;;;5032452;28;20028;-57
2021/12/15 15:08:12;;;;;;;8.63;5.15;;;;;;;;;;5029180;28;20096;-57
2021/12/15 15:10:39;;;;;;;12.57;5.30;;;;;;;;;;5024823;28;20045;-57
2021/12/15 15:13:05;;;;;;;10.57;5.20;;;;;;;;;;5029741;28;20077;-57
2021/12/15 15:15:37;;;;;;;8.52;4.95;;;;;;;;;;5029007;28;20700;-57
2021/12/15 15:18:26;;;;;;;9.02;5.35;;;;;;;;;;5032059;28;20029;-52
2021/12/15 15:20:56;;;;;;;9.48;5.07;;;;;;;;;;5030667;28;20428;-56
2021/12/15 15:23:24;;;;;;;9.55;5.03;;;;;;;;;;5028997;28;20033;-55
2021/12/15 15:25:54;;;;;;;7.78;4.43;;;;;;;;;;5026101;28;20595;-56
2021/12/15 15:28:24;;;;;;;8.50;4.65;;;;;;;;;;5024033;28;20450;-57
2021/12/15 15:30:51;;;;;;;10.48;4.95;;;;;;;;;;5020535;28;20501;-57
2021/12/15 15:33:19;;;;;;;10.40;5.20;;;;;;;;;;5031645;28;20046;-56
2021/12/15 15:35:49;;;;;;;9.77;5.50;;;;;;;;;;5030899;28;20072;-56
2021/12/15 15:38:17;;;;;;;9.07;4.65;;;;;;;;;;5024596;28;20104;-57
2021/12/15 15:40:53;;;;;;;9.93;4.97;;;;;;;;;;5028734;28;20034;-57
2021/12/15 15:43:22;;;;;;;9.70;4.82;;;;;;;;;;5024699;28;20057;-56
2021/12/15 15:45:49;;;;;;;9.90;5.25;;;;;;;;;;5028168;28;20060;-57
2021/12/15 15:48:23;;;;;;;10.75;5.00;;;;;;;;;;5030439;28;20074;-55
2021/12/15 15:50:54;;;;;;;9.50;4.85;;;;;;;;;;5033039;28;20029;-52
2021/12/15 15:53:20;;;;;;;8.77;5.20;;;;;;;;;;5027042;28;20164;-55
2021/12/15 15:55:48;;;;;;;9.10;5.18;;;;;;;;;;5032614;28;20112;-53
2021/12/15 15:58:16;;;;;;;9.63;4.95;;;;;;;;;;5029515;28;20029;-55
2021/12/15 16:00:47;;;;;;;9.80;5.18;;;;;;;;;;5023988;28;20112;-55